sensor_id;sensor_type;location;lat;lon;timestamp;pressure;altitude;pressure_sealevel;temperature;humidity
9690;BME280;4884;42.614;23.340;2024-03-08T00:00:27;92717.19;;;3.18;100.00
9690;BME280;4884;42.614;23.340;2024-03-08T00:02:52;92716.25;;;3.09;100.00
9690;BME280;4884;42.614;23.340;2024-03-08T00:05:18;92615.59;;;2.37;100.00
9690;BME280;4884;42.614;23.340;2024-03-08T00:07:44;92609.00;;;2.31;100.00
9690;BME280;4884;42.614;23.340;2024-03-08T00:10:11;92621.66;;;2.46;100.00
9690;BME280;4884;42.614;23.340;2024-03-08T00:12:40;92597.28;;;2.25;100.00
9690;BME280;4884;42.614;23.340;2024-03-08T00:15:10;92593.75;;;2.21;100.00
9690;BME280;4884;42.614;23.340;2024-03-08T00:17:36;92710.69;;;3.01;100.00
9690;BME280;4884;42.614;23.340;2024-03-08T00:20:01;92723.91;;;3.14;100.00
9690;BME280;4884;42.614;23.340;2024-03-08T00:22:28;92605.41;;;2.32;100.00
9690;BME280;4884;42.614;23.340;2024-03-08T00:24:55;92685.53;;;2.85;100.00
9690;BME280;4884;42.614;23.340;2024-03-08T00:27:21;92613.56;;;2.34;100.00
9690;BME280;4884;42.614;23.340;2024-03-08T00:29:46;92689.81;;;2.89;100.00
9690;BME280;4884;42.614;23.340;2024-03-08T00:32:12;92594.97;;;2.28;100.00
9690;BME280;4884;42.614;23.340;2024-03-08T00:34:38;92624.38;;;2.55;100.00
9690;BME280;4884;42.614;23.340;2024-03-08T00:37:04;92727.81;;;3.06;100.00
9690;BME280;4884;42.614;23.340;2024-03-08T00:39:29;92705.22;;;3.08;100.00
9690;BME280;4884;42.614;23.340;2024-03-08T00:41:55;92595.28;;;2.22;100.00
9690;BME280;4884;42.614;23.340;2024-03-08T00:44:20;92585.13;;;2.12;100.00
9690;BME280;4884;42.614;23.340;2024-03-08T00:46:46;92702.84;;;2.93;100.00
9690;BME280;4884;42.614;23.340;2024-03-08T00:49:11;92708.31;;;3.10;100.00
9690;BME280;4884;42.614;23.340;2024-03-08T00:51:37;92590.28;;;2.36;100.00
9690;BME280;4884;42.614;23.340;2024-03-08T00:54:03;92574.19;;;2.30;100.00
9690;BME280;4884;42.614;23.340;2024-03-08T00:56:28;92650.75;;;2.79;100.00
9690;BME280;4884;42.614;23.340;2024-03-08T00:58:53;92619.91;;;2.65;100.00
9690;BME280;4884;42.614;23.340;2024-03-08T01:01:19;92664.88;;;2.95;100.00
9690;BME280;4884;42.614;23.340;2024-03-08T01:03:44;92679.25;;;3.15;100.00
9690;BME280;4884;42.614;23.340;2024-03-08T01:06:10;92680.59;;;3.12;100.00
9690;BME280;4884;42.614;23.340;2024-03-08T01:08:37;92706.63;;;3.19;100.00
9690;BME280;4884;42.614;23.340;2024-03-08T01:11:04;92669.75;;;2.96;100.00
9690;BME280;4884;42.614;23.340;2024-03-08T01:13:30;92681.81;;;3.15;100.00
9690;BME280;4884;42.614;23.340;2024-03-08T01:15:55;92651.19;;;2.86;100.00
9690;BME280;4884;42.614;23.340;2024-03-08T01:18:21;92553.25;;;2.23;100.00
9690;BME280;4884;42.614;23.340;2024-03-08T01:20:46;92612.94;;;2.71;100.00
9690;BME280;4884;42.614;23.340;2024-03-08T01:23:12;92688.06;;;3.09;100.00
9690;BME280;4884;42.614;23.340;2024-03-08T01:25:37;92646.25;;;2.89;100.00
9690;BME280;4884;42.614;23.340;2024-03-08T01:28:03;92626.47;;;2.71;100.00
9690;BME280;4884;42.614;23.340;2024-03-08T01:30:29;92689.66;;;3.04;100.00
9690;BME280;4884;42.614;23.340;2024-03-08T01:32:54;92678.00;;;2.93;100.00
9690;BME280;4884;42.614;23.340;2024-03-08T01:35:20;92544.13;;;2.17;100.00
9690;BME280;4884;42.614;23.340;2024-03-08T01:37:47;92668.16;;;3.00;100.00
9690;BME280;4884;42.614;23.340;2024-03-08T01:40:15;92666.47;;;2.91;100.00
9690;BME280;4884;42.614;23.340;2024-03-08T01:42:41;92659.06;;;2.89;100.00
9690;BME280;4884;42.614;23.340;2024-03-08T01:45:07;92562.78;;;2.22;100.00
9690;BME280;4884;42.614;23.340;2024-03-08T01:47:34;92654.97;;;2.88;100.00
9690;BME280;4884;42.614;23.340;2024-03-08T01:50:00;92674.94;;;2.91;100.00
9690;BME280;4884;42.614;23.340;2024-03-08T01:52:28;92660.13;;;2.65;100.00
9690;BME280;4884;42.614;23.340;2024-03-08T01:54:54;92562.22;;;2.02;100.00
9690;BME280;4884;42.614;23.340;2024-03-08T01:57:20;92555.13;;;1.94;100.00
9690;BME280;4884;42.614;23.340;2024-03-08T01:59:46;92593.16;;;2.29;100.00
9690;BME280;4884;42.614;23.340;2024-03-08T02:02:12;92674.09;;;2.77;100.00
9690;BME280;4884;42.614;23.340;2024-03-08T02:04:40;92646.50;;;2.69;100.00
9690;BME280;4884;42.614;23.340;2024-03-08T02:07:05;92665.88;;;2.75;100.00
9690;BME280;4884;42.614;23.340;2024-03-08T02:09:31;92536.78;;;1.87;100.00
9690;BME280;4884;42.614;23.340;2024-03-08T02:11:57;92620.69;;;2.42;100.00
9690;BME280;4884;42.614;23.340;2024-03-08T02:14:22;92551.31;;;1.91;100.00
9690;BME280;4884;42.614;23.340;2024-03-08T02:16:48;92555.84;;;1.99;100.00
9690;BME280;4884;42.614;23.340;2024-03-08T02:19:14;92675.13;;;2.76;100.00
9690;BME280;4884;42.614;23.340;2024-03-08T02:21:39;92652.03;;;2.58;100.00
9690;BME280;4884;42.614;23.340;2024-03-08T02:24:05;92664.38;;;2.74;100.00
9690;BME280;4884;42.614;23.340;2024-03-08T02:26:31;92667.31;;;2.63;100.00
9690;BME280;4884;42.614;23.340;2024-03-08T02:28:56;92679.75;;;2.74;100.00
9690;BME280;4884;42.614;23.340;2024-03-08T02:31:22;92649.47;;;2.58;100.00
9690;BME280;4884;42.614;23.340;2024-03-08T02:33:47;92562.22;;;2.02;100.00
9690;BME280;4884;42.614;23.340;2024-03-08T02:36:13;92629.81;;;2.48;100.00
9690;BME280;4884;42.614;23.340;2024-03-08T02:38:38;92550.25;;;1.92;100.00
9690;BME280;4884;42.614;23.340;2024-03-08T02:41:06;92621.75;;;2.36;100.00
9690;BME280;4884;42.614;23.340;2024-03-08T02:43:31;92567.81;;;2.04;100.00
9690;BME280;4884;42.614;23.340;2024-03-08T02:45:57;92674.09;;;2.77;100.00
9690;BME280;4884;42.614;23.340;2024-03-08T02:48:22;92662.69;;;2.65;100.00
9690;BME280;4884;42.614;23.340;2024-03-08T02:50:47;92552.56;;;1.94;100.00
9690;BME280;4884;42.614;23.340;2024-03-08T02:53:13;92550.00;;;1.94;100.00
9690;BME280;4884;42.614;23.340;2024-03-08T02:55:39;92689.47;;;2.77;100.00
9690;BME280;4884;42.614;23.340;2024-03-08T02:58:06;92674.75;;;2.64;100.00
9690;BME280;4884;42.614;23.340;2024-03-08T03:00:35;92658.31;;;2.65;100.00
9690;BME280;4884;42.614;23.340;2024-03-08T03:03:00;92564.50;;;2.03;100.00
9690;BME280;4884;42.614;23.340;2024-03-08T03:05:28;92688.09;;;2.85;100.00
9690;BME280;4884;42.614;23.340;2024-03-08T03:07:54;92685.97;;;2.68;100.00
9690;BME280;4884;42.614;23.340;2024-03-08T03:10:20;92575.53;;;1.99;100.00
9690;BME280;4884;42.614;23.340;2024-03-08T03:12:48;92570.97;;;1.96;100.00
9690;BME280;4884;42.614;23.340;2024-03-08T03:15:14;92585.69;;;2.09;100.00
9690;BME280;4884;42.614;23.340;2024-03-08T03:17:48;92718.41;;;2.78;100.00
9690;BME280;4884;42.614;23.340;2024-03-08T03:20:16;92685.97;;;2.68;100.00
9690;BME280;4884;42.614;23.340;2024-03-08T03:22:50;92648.72;;;2.28;100.00
9690;BME280;4884;42.614;23.340;2024-03-08T03:25:20;92693.75;;;2.58;100.00
9690;BME280;4884;42.614;23.340;2024-03-08T03:27:51;92671.72;;;2.34;100.00
9690;BME280;4884;42.614;23.340;2024-03-08T03:30:16;92708.66;;;2.51;100.00
9690;BME280;4884;42.614;23.340;2024-03-08T03:32:49;92703.38;;;2.43;100.00
9690;BME280;4884;42.614;23.340;2024-03-08T03:35:19;92622.13;;;2.01;100.00
9690;BME280;4884;42.614;23.340;2024-03-08T03:37:46;92666.72;;;2.18;100.00
9690;BME280;4884;42.614;23.340;2024-03-08T03:40:29;92681.28;;;2.23;100.00
9690;BME280;4884;42.614;23.340;2024-03-08T03:42:54;92558.72;;;1.35;100.00
9690;BME280;4884;42.614;23.340;2024-03-08T03:45:20;92680.38;;;2.14;100.00
9690;BME280;4884;42.614;23.340;2024-03-08T03:47:46;92705.88;;;2.24;100.00
9690;BME280;4884;42.614;23.340;2024-03-08T03:50:11;92721.72;;;2.26;100.00
9690;BME280;4884;42.614;23.340;2024-03-08T03:52:37;92586.50;;;1.47;100.00
9690;BME280;4884;42.614;23.340;2024-03-08T03:55:03;92687.91;;;2.00;100.00
9690;BME280;4884;42.614;23.340;2024-03-08T03:57:30;92701.59;;;2.14;100.00
9690;BME280;4884;42.614;23.340;2024-03-08T03:59:55;92581.50;;;1.32;100.00
9690;BME280;4884;42.614;23.340;2024-03-08T04:02:20;92695.16;;;2.17;100.00
9690;BME280;4884;42.614;23.340;2024-03-08T04:04:47;92736.00;;;2.32;100.00
9690;BME280;4884;42.614;23.340;2024-03-08T04:07:13;92589.59;;;1.44;100.00
9690;BME280;4884;42.614;23.340;2024-03-08T04:09:38;92728.31;;;2.32;100.00
9690;BME280;4884;42.614;23.340;2024-03-08T04:12:04;92697.31;;;2.05;100.00
9690;BME280;4884;42.614;23.340;2024-03-08T04:14:30;92602.13;;;1.45;100.00
9690;BME280;4884;42.614;23.340;2024-03-08T04:16:55;92607.69;;;1.52;100.00
9690;BME280;4884;42.614;23.340;2024-03-08T04:19:20;92720.44;;;2.23;100.00
9690;BME280;4884;42.614;23.340;2024-03-08T04:21:46;92598.97;;;1.53;100.00
9690;BME280;4884;42.614;23.340;2024-03-08T04:24:12;92619.69;;;1.57;100.00
9690;BME280;4884;42.614;23.340;2024-03-08T04:26:37;92600.13;;;1.37;100.00
9690;BME280;4884;42.614;23.340;2024-03-08T04:29:03;92584.31;;;1.30;100.00
9690;BME280;4884;42.614;23.340;2024-03-08T04:31:28;92721.56;;;2.12;100.00
9690;BME280;4884;42.614;23.340;2024-03-08T04:33:56;92615.19;;;1.39;100.00
9690;BME280;4884;42.614;23.340;2024-03-08T04:36:21;92720.09;;;2.06;100.00
9690;BME280;4884;42.614;23.340;2024-03-08T04:38:47;92660.78;;;1.66;100.00
9690;BME280;4884;42.614;23.340;2024-03-08T04:41:12;92616.22;;;1.38;100.00
9690;BME280;4884;42.614;23.340;2024-03-08T04:43:38;92621.78;;;1.45;100.00
9690;BME280;4884;42.614;23.340;2024-03-08T04:46:04;92742.22;;;2.21;100.00
9690;BME280;4884;42.614;23.340;2024-03-08T04:48:30;92772.63;;;2.33;100.00
9690;BME280;4884;42.614;23.340;2024-03-08T04:50:56;92702.41;;;1.76;100.00
9690;BME280;4884;42.614;23.340;2024-03-08T04:53:21;92572.28;;;0.97;100.00
9690;BME280;4884;42.614;23.340;2024-03-08T04:55:47;92599.72;;;1.20;100.00
9690;BME280;4884;42.614;23.340;2024-03-08T04:58:12;92658.84;;;1.52;100.00
9690;BME280;4884;42.614;23.340;2024-03-08T05:00:38;92687.38;;;1.65;100.00
9690;BME280;4884;42.614;23.340;2024-03-08T05:03:03;92744.41;;;2.04;100.00
9690;BME280;4884;42.614;23.340;2024-03-08T05:05:30;92735.53;;;1.96;100.00
9690;BME280;4884;42.614;23.340;2024-03-08T05:07:55;92777.13;;;2.12;100.00
9690;BME280;4884;42.614;23.340;2024-03-08T05:10:21;92757.47;;;2.07;100.00
9690;BME280;4884;42.614;23.340;2024-03-08T05:12:46;92631.94;;;1.21;100.00
9690;BME280;4884;42.614;23.340;2024-03-08T05:15:12;92650.78;;;1.30;100.00
9690;BME280;4884;42.614;23.340;2024-03-08T05:17:37;92661.72;;;1.41;100.00
9690;BME280;4884;42.614;23.340;2024-03-08T05:20:05;92771.06;;;2.03;100.00
9690;BME280;4884;42.614;23.340;2024-03-08T05:22:33;92658.97;;;1.27;100.00
9690;BME280;4884;42.614;23.340;2024-03-08T05:24:58;92750.88;;;1.96;100.00
9690;BME280;4884;42.614;23.340;2024-03-08T05:27:24;92783.06;;;2.07;100.00
9690;BME280;4884;42.614;23.340;2024-03-08T05:29:49;92789.22;;;2.01;100.00
9690;BME280;4884;42.614;23.340;2024-03-08T05:32:14;92573.47;;;0.66;100.00
9690;BME280;4884;42.614;23.340;2024-03-08T05:34:40;92793.53;;;2.11;100.00
9690;BME280;4884;42.614;23.340;2024-03-08T05:37:05;92665.38;;;1.25;100.00
9690;BME280;4884;42.614;23.340;2024-03-08T05:39:32;92717.91;;;1.51;100.00
9690;BME280;4884;42.614;23.340;2024-03-08T05:41:57;92777.53;;;1.90;100.00
9690;BME280;4884;42.614;23.340;2024-03-08T05:44:23;92648.75;;;1.27;100.00
9690;BME280;4884;42.614;23.340;2024-03-08T05:46:48;92694.09;;;1.56;100.00
9690;BME280;4884;42.614;23.340;2024-03-08T05:49:14;92818.50;;;2.29;100.00
9690;BME280;4884;42.614;23.340;2024-03-08T05:51:40;92676.88;;;1.27;100.00
9690;BME280;4884;42.614;23.340;2024-03-08T05:54:07;92723.66;;;1.72;100.00
9690;BME280;4884;42.614;23.340;2024-03-08T05:56:35;92703.72;;;1.69;100.00
9690;BME280;4884;42.614;23.340;2024-03-08T05:59:01;92824.25;;;2.45;100.00
9690;BME280;4884;42.614;23.340;2024-03-08T06:01:27;92813.31;;;2.34;100.00
9690;BME280;4884;42.614;23.340;2024-03-08T06:03:53;92708.41;;;1.62;100.00
9690;BME280;4884;42.614;23.340;2024-03-08T06:06:21;92708.81;;;1.74;100.00
9690;BME280;4884;42.614;23.340;2024-03-08T06:08:47;92796.75;;;2.26;100.00
9690;BME280;4884;42.614;23.340;2024-03-08T06:11:14;92706.56;;;1.67;100.00
9690;BME280;4884;42.614;23.340;2024-03-08T06:13:40;92734.28;;;1.89;100.00
9690;BME280;4884;42.614;23.340;2024-03-08T06:16:05;92858.44;;;2.64;100.00
9690;BME280;4884;42.614;23.340;2024-03-08T06:18:33;92725.66;;;1.80;100.00
9690;BME280;4884;42.614;23.340;2024-03-08T06:20:59;92840.53;;;2.59;100.00
9690;BME280;4884;42.614;23.340;2024-03-08T06:23:24;92764.47;;;1.92;100.00
9690;BME280;4884;42.614;23.340;2024-03-08T06:25:50;92834.38;;;2.26;100.00
9690;BME280;4884;42.614;23.340;2024-03-08T06:28:15;92688.81;;;0.98;100.00
9690;BME280;4884;42.614;23.340;2024-03-08T06:30:42;92858.09;;;1.98;100.00
9690;BME280;4884;42.614;23.340;2024-03-08T06:33:08;92842.06;;;1.82;100.00
9690;BME280;4884;42.614;23.340;2024-03-08T06:35:33;92676.13;;;0.68;100.00
9690;BME280;4884;42.614;23.340;2024-03-08T06:38:00;92803.63;;;1.38;100.00
9690;BME280;4884;42.614;23.340;2024-03-08T06:40:25;92842.91;;;1.63;100.00
9690;BME280;4884;42.614;23.340;2024-03-08T06:42:50;92830.91;;;1.58;100.00
9690;BME280;4884;42.614;23.340;2024-03-08T06:45:17;92830.13;;;1.68;100.00
9690;BME280;4884;42.614;23.340;2024-03-08T06:47:46;92858.09;;;1.98;100.00
9690;BME280;4884;42.614;23.340;2024-03-08T06:50:11;92718.63;;;1.08;100.00
9690;BME280;4884;42.614;23.340;2024-03-08T06:52:37;92779.84;;;1.43;100.00
9690;BME280;4884;42.614;23.340;2024-03-08T06:55:02;92851.88;;;1.65;100.00
9690;BME280;4884;42.614;23.340;2024-03-08T06:57:30;92812.34;;;1.32;100.00
9690;BME280;4884;42.614;23.340;2024-03-08T06:59:55;92853.06;;;1.78;100.00
9690;BME280;4884;42.614;23.340;2024-03-08T07:02:22;92739.38;;;0.96;100.00
9690;BME280;4884;42.614;23.340;2024-03-08T07:04:50;92749.50;;;1.21;100.00
9690;BME280;4884;42.614;23.340;2024-03-08T07:07:15;92735.16;;;1.25;100.00
9690;BME280;4884;42.614;23.340;2024-03-08T07:09:44;92866.47;;;2.08;100.00
9690;BME280;4884;42.614;23.340;2024-03-08T07:12:10;92759.72;;;1.26;100.00
9690;BME280;4884;42.614;23.340;2024-03-08T07:14:37;92890.03;;;2.49;100.00
9690;BME280;4884;42.614;23.340;2024-03-08T07:17:06;92784.22;;;1.37;100.00
9690;BME280;4884;42.614;23.340;2024-03-08T07:19:34;92752.47;;;1.43;100.00
9690;BME280;4884;42.614;23.340;2024-03-08T07:22:00;92854.88;;;2.21;100.00
9690;BME280;4884;42.614;23.340;2024-03-08T07:24:25;92861.06;;;2.15;100.00
9690;BME280;4884;42.614;23.340;2024-03-08T07:27:05;92794.72;;;1.80;100.00
9690;BME280;4884;42.614;23.340;2024-03-08T07:29:33;92872.25;;;2.29;100.00
9690;BME280;4884;42.614;23.340;2024-03-08T07:31:59;92870.22;;;2.26;100.00
9690;BME280;4884;42.614;23.340;2024-03-08T07:34:44;92760.00;;;1.69;100.00
9690;BME280;4884;42.614;23.340;2024-03-08T07:37:09;92876.63;;;2.62;100.00
9690;BME280;4884;42.614;23.340;2024-03-08T07:39:37;92834.19;;;2.51;100.00
9690;BME280;4884;42.614;23.340;2024-03-08T07:42:03;92766.59;;;1.80;100.00
9690;BME280;4884;42.614;23.340;2024-03-08T07:44:28;92758.00;;;1.99;100.00
9690;BME280;4884;42.614;23.340;2024-03-08T07:46:54;92762.03;;;2.10;100.00
9690;BME280;4884;42.614;23.340;2024-03-08T07:49:20;92751.22;;;1.80;100.00
9690;BME280;4884;42.614;23.340;2024-03-08T07:51:45;92764.41;;;2.02;100.00
9690;BME280;4884;42.614;23.340;2024-03-08T07:54:10;92775.13;;;2.04;100.00
9690;BME280;4884;42.614;23.340;2024-03-08T07:56:36;92756.81;;;1.87;100.00
9690;BME280;4884;42.614;23.340;2024-03-08T07:59:02;92907.31;;;2.72;100.00
9690;BME280;4884;42.614;23.340;2024-03-08T08:01:29;92779.66;;;2.12;100.00
9690;BME280;4884;42.614;23.340;2024-03-08T08:03:56;92884.13;;;2.87;100.00
9690;BME280;4884;42.614;23.340;2024-03-08T08:06:22;92908.63;;;3.03;100.00
9690;BME280;4884;42.614;23.340;2024-03-08T08:08:47;92875.84;;;2.95;100.00
9690;BME280;4884;42.614;23.340;2024-03-08T08:11:12;92775.31;;;2.12;100.00
9690;BME280;4884;42.614;23.340;2024-03-08T08:13:38;92919.03;;;2.83;100.00
9690;BME280;4884;42.614;23.340;2024-03-08T08:16:04;92889.22;;;2.92;100.00
9690;BME280;4884;42.614;23.340;2024-03-08T08:18:31;92875.66;;;3.16;100.00
9690;BME280;4884;42.614;23.340;2024-03-08T08:20:58;92872.44;;;3.05;100.00
9690;BME280;4884;42.614;23.340;2024-03-08T08:23:25;92748.75;;;2.37;100.00
9690;BME280;4884;42.614;23.340;2024-03-08T08:25:50;92886.84;;;3.30;100.00
9690;BME280;4884;42.614;23.340;2024-03-08T08:28:16;92744.63;;;2.41;100.00
9690;BME280;4884;42.614;23.340;2024-03-08T08:30:43;92895.81;;;3.56;100.00
9690;BME280;4884;42.614;23.340;2024-03-08T08:33:08;92896.72;;;3.65;100.00
9690;BME280;4884;42.614;23.340;2024-03-08T08:35:34;92895.56;;;3.76;100.00
9690;BME280;4884;42.614;23.340;2024-03-08T08:37:59;92893.06;;;3.71;100.00
9690;BME280;4884;42.614;23.340;2024-03-08T08:40:25;92778.13;;;3.26;100.00
9690;BME280;4884;42.614;23.340;2024-03-08T08:42:51;92874.81;;;4.33;100.00
9690;BME280;4884;42.614;23.340;2024-03-08T08:45:18;92733.13;;;3.75;100.00
9690;BME280;4884;42.614;23.340;2024-03-08T08:47:44;92770.56;;;3.76;99.14
9690;BME280;4884;42.614;23.340;2024-03-08T08:50:10;92866.06;;;4.85;97.81
9690;BME280;4884;42.614;23.340;2024-03-08T08:52:38;92835.09;;;4.44;98.87
9690;BME280;4884;42.614;23.340;2024-03-08T08:55:04;92761.38;;;3.52;96.10
9690;BME280;4884;42.614;23.340;2024-03-08T08:57:31;92904.47;;;4.44;97.94
9690;BME280;4884;42.614;23.340;2024-03-08T08:59:58;92827.56;;;4.67;95.66
9690;BME280;4884;42.614;23.340;2024-03-08T09:02:23;92883.91;;;5.27;99.03
9690;BME280;4884;42.614;23.340;2024-03-08T09:04:50;92750.81;;;4.60;94.20
9690;BME280;4884;42.614;23.340;2024-03-08T09:07:16;92833.78;;;5.25;94.09
9690;BME280;4884;42.614;23.340;2024-03-08T09:09:44;92776.22;;;5.07;94.58
9690;BME280;4884;42.614;23.340;2024-03-08T09:12:10;92877.91;;;5.59;90.51
9690;BME280;4884;42.614;23.340;2024-03-08T09:14:40;92760.41;;;4.54;97.23
9690;BME280;4884;42.614;23.340;2024-03-08T09:17:05;92877.25;;;5.54;94.84
9690;BME280;4884;42.614;23.340;2024-03-08T09:19:35;92800.56;;;4.96;95.30
9690;BME280;4884;42.614;23.340;2024-03-08T09:22:01;92863.91;;;5.38;97.05
9690;BME280;4884;42.614;23.340;2024-03-08T09:24:28;92847.91;;;4.63;99.69
9690;BME280;4884;42.614;23.340;2024-03-08T09:26:54;92880.28;;;4.96;96.98
9690;BME280;4884;42.614;23.340;2024-03-08T09:29:20;92732.22;;;4.17;98.88
9690;BME280;4884;42.614;23.340;2024-03-08T09:31:45;92867.75;;;4.76;99.19
9690;BME280;4884;42.614;23.340;2024-03-08T09:34:11;92764.34;;;4.33;97.15
9690;BME280;4884;42.614;23.340;2024-03-08T09:36:36;92861.94;;;5.03;97.57
9690;BME280;4884;42.614;23.340;2024-03-08T09:39:02;92803.50;;;4.90;93.55
9690;BME280;4884;42.614;23.340;2024-03-08T09:41:28;92860.25;;;5.12;92.09
9690;BME280;4884;42.614;23.340;2024-03-08T09:43:56;92866.31;;;5.75;91.94
9690;BME280;4884;42.614;23.340;2024-03-08T09:46:24;92866.47;;;7.00;80.56
9690;BME280;4884;42.614;23.340;2024-03-08T09:48:50;92767.66;;;6.99;76.80
9690;BME280;4884;42.614;23.340;2024-03-08T09:51:16;92870.22;;;8.68;69.92
9690;BME280;4884;42.614;23.340;2024-03-08T09:53:41;92883.41;;;10.69;66.22
9690;BME280;4884;42.614;23.340;2024-03-08T09:56:10;92858.88;;;9.41;67.58
9690;BME280;4884;42.614;23.340;2024-03-08T09:58:36;92852.28;;;8.71;67.39
9690;BME280;4884;42.614;23.340;2024-03-08T10:01:13;92879.53;;;8.86;66.88
9690;BME280;4884;42.614;23.340;2024-03-08T10:03:38;92852.88;;;7.38;71.63
9690;BME280;4884;42.614;23.340;2024-03-08T10:06:06;92859.63;;;7.96;68.04
9690;BME280;4884;42.614;23.340;2024-03-08T10:08:31;92861.19;;;7.57;68.60
9690;BME280;4884;42.614;23.340;2024-03-08T10:10:57;92755.59;;;7.17;71.42
9690;BME280;4884;42.614;23.340;2024-03-08T10:13:24;92760.25;;;8.45;60.23
9690;BME280;4884;42.614;23.340;2024-03-08T10:15:50;92758.84;;;9.57;56.13
9690;BME280;4884;42.614;23.340;2024-03-08T10:18:16;92853.47;;;9.08;62.41
9690;BME280;4884;42.614;23.340;2024-03-08T10:20:42;92775.31;;;8.34;65.08
9690;BME280;4884;42.614;23.340;2024-03-08T10:23:08;92766.47;;;8.44;63.73
9690;BME280;4884;42.614;23.340;2024-03-08T10:25:35;92758.69;;;8.01;63.69
9690;BME280;4884;42.614;23.340;2024-03-08T10:28:04;92861.56;;;8.29;64.97
9690;BME280;4884;42.614;23.340;2024-03-08T10:30:30;92751.41;;;8.11;67.07
9690;BME280;4884;42.614;23.340;2024-03-08T10:32:55;92855.16;;;8.27;67.44
9690;BME280;4884;42.614;23.340;2024-03-08T10:35:21;92840.28;;;7.85;69.51
9690;BME280;4884;42.614;23.340;2024-03-08T10:37:49;92853.41;;;7.97;71.20
9690;BME280;4884;42.614;23.340;2024-03-08T10:40:26;92867.66;;;7.16;75.44
9690;BME280;4884;42.614;23.340;2024-03-08T10:42:52;92868.75;;;7.01;73.97
9690;BME280;4884;42.614;23.340;2024-03-08T10:45:40;92843.03;;;6.88;75.18
9690;BME280;4884;42.614;23.340;2024-03-08T10:48:29;92885.41;;;6.95;76.15
9690;BME280;4884;42.614;23.340;2024-03-08T10:51:07;92848.94;;;6.88;75.92
9690;BME280;4884;42.614;23.340;2024-03-08T10:53:33;92740.97;;;5.98;75.21
9690;BME280;4884;42.614;23.340;2024-03-08T10:55:59;92848.00;;;7.06;74.87
9690;BME280;4884;42.614;23.340;2024-03-08T10:58:26;92838.41;;;6.98;75.50
9690;BME280;4884;42.614;23.340;2024-03-08T11:00:55;92829.47;;;6.38;74.85
9690;BME280;4884;42.614;23.340;2024-03-08T11:06:08;92838.06;;;6.91;77.09
9690;BME280;4884;42.614;23.340;2024-03-08T11:08:40;92728.47;;;6.36;76.74
9690;BME280;4884;42.614;23.340;2024-03-08T11:11:23;92736.91;;;6.72;73.35
9690;BME280;4884;42.614;23.340;2024-03-08T11:13:52;92804.47;;;7.13;74.42
9690;BME280;4884;42.614;23.340;2024-03-08T11:18:54;92720.31;;;6.95;68.54
9690;BME280;4884;42.614;23.340;2024-03-08T11:21:19;92817.41;;;7.61;67.71
9690;BME280;4884;42.614;23.340;2024-03-08T11:24:07;92713.22;;;6.70;72.03
9690;BME280;4884;42.614;23.340;2024-03-08T11:26:34;92827.16;;;7.55;70.02
9690;BME280;4884;42.614;23.340;2024-03-08T11:29:33;92835.75;;;7.99;70.11
9690;BME280;4884;42.614;23.340;2024-03-08T11:32:12;92825.91;;;8.09;67.56
9690;BME280;4884;42.614;23.340;2024-03-08T11:34:47;92684.50;;;6.32;70.17
9690;BME280;4884;42.614;23.340;2024-03-08T11:37:17;92817.09;;;7.54;68.82
9690;BME280;4884;42.614;23.340;2024-03-08T11:40:01;92788.78;;;7.40;65.22
9690;BME280;4884;42.614;23.340;2024-03-08T11:42:27;92697.47;;;7.19;64.59
9690;BME280;4884;42.614;23.340;2024-03-08T11:44:53;92788.94;;;7.92;65.48
9690;BME280;4884;42.614;23.340;2024-03-08T11:47:19;92791.97;;;7.94;63.24
9690;BME280;4884;42.614;23.340;2024-03-08T11:49:45;92687.19;;;7.36;60.11
9690;BME280;4884;42.614;23.340;2024-03-08T11:52:17;92837.44;;;9.23;54.47
9690;BME280;4884;42.614;23.340;2024-03-08T11:54:47;92824.28;;;8.56;60.36
9690;BME280;4884;42.614;23.340;2024-03-08T11:57:17;92705.78;;;7.73;58.80
9690;BME280;4884;42.614;23.340;2024-03-08T11:59:52;92678.22;;;6.47;64.01
9690;BME280;4884;42.614;23.340;2024-03-08T12:02:18;92789.72;;;7.44;67.08
9690;BME280;4884;42.614;23.340;2024-03-08T12:04:44;92712.78;;;7.07;67.35
9690;BME280;4884;42.614;23.340;2024-03-08T12:07:11;92816.72;;;7.38;69.44
9690;BME280;4884;42.614;23.340;2024-03-08T12:09:40;92682.25;;;6.61;68.81
9690;BME280;4884;42.614;23.340;2024-03-08T12:12:07;92803.03;;;7.29;69.53
9690;BME280;4884;42.614;23.340;2024-03-08T12:14:35;92811.53;;;7.30;69.84
9690;BME280;4884;42.614;23.340;2024-03-08T12:17:01;92725.00;;;6.93;69.43
9690;BME280;4884;42.614;23.340;2024-03-08T12:19:28;92814.69;;;7.57;67.96
9690;BME280;4884;42.614;23.340;2024-03-08T12:21:54;92688.44;;;6.91;68.27
9690;BME280;4884;42.614;23.340;2024-03-08T12:24:20;92684.47;;;6.85;65.88
9690;BME280;4884;42.614;23.340;2024-03-08T12:26:47;92710.78;;;7.04;67.41
9690;BME280;4884;42.614;23.340;2024-03-08T12:31:43;92760.38;;;7.97;62.75
9690;BME280;4884;42.614;23.340;2024-03-08T12:34:11;92764.56;;;7.19;68.62
9690;BME280;4884;42.614;23.340;2024-03-08T12:36:44;92659.72;;;6.84;66.02
9690;BME280;4884;42.614;23.340;2024-03-08T12:39:10;92674.44;;;7.31;65.30
9690;BME280;4884;42.614;23.340;2024-03-08T12:41:40;92782.50;;;7.64;68.13
9690;BME280;4884;42.614;23.340;2024-03-08T12:44:06;92666.75;;;6.92;66.97
9690;BME280;4884;42.614;23.340;2024-03-08T12:46:36;92789.09;;;8.04;64.29
9690;BME280;4884;42.614;23.340;2024-03-08T12:49:08;92795.78;;;7.96;66.43
9690;BME280;4884;42.614;23.340;2024-03-08T12:51:34;92778.00;;;7.95;63.91
9690;BME280;4884;42.614;23.340;2024-03-08T12:54:00;92699.94;;;7.33;63.89
9690;BME280;4884;42.614;23.340;2024-03-08T12:56:32;92717.69;;;7.26;64.43
9690;BME280;4884;42.614;23.340;2024-03-08T12:58:59;92693.38;;;7.18;65.33
9690;BME280;4884;42.614;23.340;2024-03-08T13:01:25;92777.75;;;7.48;67.39
9690;BME280;4884;42.614;23.340;2024-03-08T13:03:50;92792.78;;;7.46;68.17
9690;BME280;4884;42.614;23.340;2024-03-08T13:06:16;92779.59;;;7.65;66.04
9690;BME280;4884;42.614;23.340;2024-03-08T13:08:41;92764.34;;;7.38;65.60
9690;BME280;4884;42.614;23.340;2024-03-08T13:11:09;92654.81;;;7.22;63.98
9690;BME280;4884;42.614;23.340;2024-03-08T13:13:39;92770.09;;;8.00;65.58
9690;BME280;4884;42.614;23.340;2024-03-08T13:16:05;92670.34;;;7.47;64.52
9690;BME280;4884;42.614;23.340;2024-03-08T13:18:35;92807.34;;;7.42;65.67
9690;BME280;4884;42.614;23.340;2024-03-08T13:21:00;92683.09;;;7.35;66.54